Time;durP1;ratioP1;P1;durP2;ratioP2;P2;SDS_P1;SDS_P2;PMS_P1;PMS_P2;Temp;Humidity;BMP_temperature;BMP_pressure;BME280_temperature;BME280_humidity;BME280_pressure;Samples;Min_cycle;Max_cycle;Signal;HPM_P1;HPM_P2
2023/10/12 00:01:58;;;;;;;12.43;7.07;;;;;;;;;;5059061;27;87464;-59
2023/10/12 00:04:27;;;;;;;16.93;8.37;;;;;;;;;;5057099;27;88244;-59
2023/10/12 00:06:58;;;;;;;15.83;7.97;;;;;;;;;;5058901;27;88264;-59
2023/10/12 00:09:27;;;;;;;13.87;7.93;;;;;;;;;;5058564;27;87941;-59
2023/10/12 00:11:58;;;;;;;11.47;6.93;;;;;;;;;;5056795;27;87983;-59
2023/10/12 00:14:32;;;;;;;11.10;6.23;;;;;;;;;;5054353;27;88384;-59
2023/10/12 00:17:00;;;;;;;14.03;7.60;;;;;;;;;;5056450;27;88198;-59
2023/10/12 00:19:29;;;;;;;13.40;7.43;;;;;;;;;;5052432;27;89071;-59
2023/10/12 00:22:00;;;;;;;14.57;6.93;;;;;;;;;;5058768;27;87663;-59
2023/10/12 00:24:30;;;;;;;14.30;7.33;;;;;;;;;;5054463;27;91309;-59
2023/10/12 00:27:01;;;;;;;10.53;6.33;;;;;;;;;;5056882;27;89135;-59
2023/10/12 00:29:31;;;;;;;10.33;6.23;;;;;;;;;;5054873;27;88914;-59
2023/10/12 00:32:02;;;;;;;19.50;8.50;;;;;;;;;;5052368;27;87680;-59
2023/10/12 00:34:34;;;;;;;10.93;6.63;;;;;;;;;;5056656;27;89810;-58
2023/10/12 00:37:03;;;;;;;10.10;6.90;;;;;;;;;;5055275;27;89737;-59
2023/10/12 00:39:45;;;;;;;10.03;5.30;;;;;;;;;;5054684;27;89052;-59
2023/10/12 00:42:17;;;;;;;11.63;6.50;;;;;;;;;;5058707;27;87542;-59
2023/10/12 00:44:49;;;;;;;12.20;7.53;;;;;;;;;;5056359;27;88539;-59
2023/10/12 00:47:29;;;;;;;10.23;5.57;;;;;;;;;;5050901;27;89196;-59
2023/10/12 00:50:05;;;;;;;12.47;5.33;;;;;;;;;;5049741;27;87837;-58
2023/10/12 00:52:45;;;;;;;13.50;5.80;;;;;;;;;;5050114;27;87803;-58
2023/10/12 00:55:21;;;;;;;9.43;5.43;;;;;;;;;;5053306;27;88512;-58
2023/10/12 00:57:51;;;;;;;10.23;5.27;;;;;;;;;;5051201;27;87474;-58
2023/10/12 01:00:21;;;;;;;11.67;5.33;;;;;;;;;;5046923;27;87834;-58
2023/10/12 01:05:35;;;;;;;8.50;5.07;;;;;;;;;;5053433;27;89825;-58
2023/10/12 01:08:04;;;;;;;11.47;6.03;;;;;;;;;;5052210;27;87635;-58
2023/10/12 01:10:37;;;;;;;9.10;4.90;;;;;;;;;;5056489;27;87813;-58
2023/10/12 01:13:09;;;;;;;8.13;4.63;;;;;;;;;;5053786;27;87491;-58
2023/10/12 01:15:40;;;;;;;9.03;5.03;;;;;;;;;;5052375;27;89697;-58
2023/10/12 01:18:11;;;;;;;6.90;4.53;;;;;;;;;;5053959;27;89477;-58
2023/10/12 01:20:40;;;;;;;7.97;3.90;;;;;;;;;;5049717;27;88006;-58
2023/10/12 01:23:10;;;;;;;8.63;5.13;;;;;;;;;;5055121;27;87526;-58
2023/10/12 01:25:42;;;;;;;9.27;4.73;;;;;;;;;;5054571;27;88572;-58
2023/10/12 01:28:12;;;;;;;7.60;4.57;;;;;;;;;;5053621;27;88959;-58
2023/10/12 01:30:43;;;;;;;6.10;4.10;;;;;;;;;;5054436;27;89749;-58
2023/10/12 01:33:13;;;;;;;6.80;4.90;;;;;;;;;;5055781;27;87639;-58
2023/10/12 01:35:48;;;;;;;7.07;4.90;;;;;;;;;;5052172;27;88601;-58
2023/10/12 01:38:21;;;;;;;7.63;4.30;;;;;;;;;;5053467;27;89127;-58
2023/10/12 01:40:54;;;;;;;7.83;4.97;;;;;;;;;;5056375;27;89002;-58
2023/10/12 01:43:27;;;;;;;9.47;4.80;;;;;;;;;;5056956;27;87558;-58
2023/10/12 01:46:01;;;;;;;6.97;4.10;;;;;;;;;;5053515;27;89509;-57
2023/10/12 01:48:33;;;;;;;7.50;4.80;;;;;;;;;;5056293;27;88080;-58
2023/10/12 01:51:10;;;;;;;7.73;4.43;;;;;;;;;;5056925;27;88882;-58
2023/10/12 01:53:40;;;;;;;9.13;4.53;;;;;;;;;;5054081;27;87985;-58
2023/10/12 01:56:10;;;;;;;12.00;4.60;;;;;;;;;;5055278;27;88426;-58
2023/10/12 01:58:43;;;;;;;8.47;5.07;;;;;;;;;;5056139;27;87692;-58
2023/10/12 02:01:18;;;;;;;7.90;4.70;;;;;;;;;;5055783;27;88946;-58
2023/10/12 02:03:48;;;;;;;6.47;3.80;;;;;;;;;;5055215;27;88498;-58
2023/10/12 02:06:16;;;;;;;8.10;4.97;;;;;;;;;;5056609;27;89696;-58
2023/10/12 02:08:49;;;;;;;7.20;3.87;;;;;;;;;;5057512;27;88227;-58
2023/10/12 02:11:35;;;;;;;8.97;4.87;;;;;;;;;;5055049;27;87939;-61
2023/10/12 02:14:04;;;;;;;7.30;3.93;;;;;;;;;;5055066;27;87382;-58
2023/10/12 02:16:37;;;;;;;7.53;4.00;;;;;;;;;;5058208;27;89636;-58
2023/10/12 02:19:06;;;;;;;7.53;4.37;;;;;;;;;;5056579;27;90071;-58
2023/10/12 02:21:37;;;;;;;5.80;3.77;;;;;;;;;;5062389;27;89975;-59
2023/10/12 02:24:14;;;;;;;8.03;3.43;;;;;;;;;;5062614;27;87483;-59
2023/10/12 02:26:52;;;;;;;6.27;3.87;;;;;;;;;;5064007;27;88471;-58
2023/10/12 02:29:21;;;;;;;6.17;3.57;;;;;;;;;;5060988;27;89108;-59
2023/10/12 02:31:58;;;;;;;5.17;3.67;;;;;;;;;;5062951;27;88874;-59
2023/10/12 02:34:29;;;;;;;7.57;4.10;;;;;;;;;;5062533;27;87405;-59
2023/10/12 02:39:46;;;;;;;7.03;2.93;;;;;;;;;;5050703;27;89205;-59
2023/10/12 02:42:18;;;;;;;5.83;3.10;;;;;;;;;;5062133;27;87580;-59
2023/10/12 02:45:15;;;;;;;5.13;3.07;;;;;;;;;;5049165;27;89559;-59
2023/10/12 02:47:45;;;;;;;6.37;3.90;;;;;;;;;;5054035;27;88958;-59
2023/10/12 02:53:12;;;;;;;8.07;3.30;;;;;;;;;;5044289;27;88917;-59
2023/10/12 02:55:48;;;;;;;6.93;3.47;;;;;;;;;;5060481;27;88135;-59
2023/10/12 02:58:23;;;;;;;6.87;3.03;;;;;;;;;;5053751;27;87470;-58
2023/10/12 03:00:56;;;;;;;5.97;3.40;;;;;;;;;;5060091;27;88096;-58
2023/10/12 03:03:27;;;;;;;4.00;2.93;;;;;;;;;;5060257;27;88589;-59
2023/10/12 03:06:07;;;;;;;4.50;2.90;;;;;;;;;;5054068;27;87574;-59
2023/10/12 03:08:47;;;;;;;6.77;3.17;;;;;;;;;;5060071;27;89026;-59
2023/10/12 03:11:20;;;;;;;7.87;3.30;;;;;;;;;;5059309;27;90138;-59
2023/10/12 03:14:00;;;;;;;8.20;3.23;;;;;;;;;;5058615;27;89759;-59
2023/10/12 03:16:33;;;;;;;4.77;3.40;;;;;;;;;;5060339;27;87519;-59
2023/10/12 03:19:17;;;;;;;4.30;2.93;;;;;;;;;;5059573;27;88632;-59
2023/10/12 03:21:47;;;;;;;6.00;3.10;;;;;;;;;;5064262;27;88083;-59
2023/10/12 03:24:16;;;;;;;4.30;2.90;;;;;;;;;;5059468;27;88038;-59
2023/10/12 03:26:49;;;;;;;4.07;2.83;;;;;;;;;;5054790;27;87746;-59
2023/10/12 03:29:21;;;;;;;5.27;3.17;;;;;;;;;;5046341;27;88725;-59
2023/10/12 03:31:57;;;;;;;8.63;3.40;;;;;;;;;;5058743;27;88103;-59
2023/10/12 03:34:36;;;;;;;4.50;2.93;;;;;;;;;;5052719;27;89111;-59
2023/10/12 03:37:13;;;;;;;5.77;3.63;;;;;;;;;;5057374;27;88231;-59
2023/10/12 03:39:58;;;;;;;5.60;3.13;;;;;;;;;;5049136;27;88603;-59
2023/10/12 03:42:42;;;;;;;5.90;3.37;;;;;;;;;;5057790;27;89015;-59
2023/10/12 03:45:24;;;;;;;8.07;3.60;;;;;;;;;;5055301;27;88770;-59
2023/10/12 03:48:04;;;;;;;4.03;2.83;;;;;;;;;;5047170;27;87596;-59
2023/10/12 03:50:51;;;;;;;5.77;3.00;;;;;;;;;;5053221;27;88559;-59
2023/10/12 03:53:26;;;;;;;5.20;2.87;;;;;;;;;;5058143;27;88070;-59
2023/10/12 03:55:58;;;;;;;5.20;3.07;;;;;;;;;;5043598;27;87792;-59
2023/10/12 03:58:28;;;;;;;4.83;3.37;;;;;;;;;;5052440;27;87582;-59
2023/10/12 04:01:10;;;;;;;4.03;2.83;;;;;;;;;;5058151;27;87469;-59
2023/10/12 04:03:40;;;;;;;5.10;3.13;;;;;;;;;;5047088;27;88546;-59
2023/10/12 04:06:14;;;;;;;6.77;4.03;;;;;;;;;;5057580;27;88547;-59
2023/10/12 04:08:51;;;;;;;8.47;2.93;;;;;;;;;;5058526;27;87549;-59
2023/10/12 04:14:47;;;;;;;8.67;3.23;;;;;;;;;;5049798;27;88791;-59
2023/10/12 04:20:14;;;;;;;3.33;2.37;;;;;;;;;;5059634;27;87435;-59
2023/10/12 04:25:32;;;;;;;3.20;2.30;;;;;;;;;;5053932;27;88179;-59
2023/10/12 04:28:16;;;;;;;4.60;2.67;;;;;;;;;;5060776;27;87448;-59
2023/10/12 04:33:29;;;;;;;4.07;2.53;;;;;;;;;;5009744;27;89689;-59
2023/10/12 04:36:12;;;;;;;5.57;2.77;;;;;;;;;;5060292;27;88101;-59
2023/10/12 04:38:56;;;;;;;4.10;3.13;;;;;;;;;;5060401;27;88680;-59
2023/10/12 04:41:37;;;;;;;6.30;2.53;;;;;;;;;;5059799;27;87510;-59
2023/10/12 04:44:25;;;;;;;2.97;2.47;;;;;;;;;;5054780;27;88602;-59
2023/10/12 04:46:59;;;;;;;4.80;2.77;;;;;;;;;;5058079;27;88158;-59
2023/10/12 04:52:17;;;;;;;2.93;2.07;;;;;;;;;;5061081;27;87629;-59
2023/10/12 04:57:33;;;;;;;2.10;1.77;;;;;;;;;;5061813;27;89018;-59
2023/10/12 05:00:09;;;;;;;2.33;1.70;;;;;;;;;;5067224;27;88839;-59
2023/10/12 05:08:09;;;;;;;3.20;2.47;;;;;;;;;;5047490;27;89083;-59
2023/10/12 05:10:50;;;;;;;2.70;1.90;;;;;;;;;;5060590;27;87817;-59
2023/10/12 05:13:22;;;;;;;3.83;1.93;;;;;;;;;;5057658;27;87532;-59
2023/10/12 05:15:55;;;;;;;5.00;2.63;;;;;;;;;;5056738;27;89661;-59
2023/10/12 05:18:26;;;;;;;3.17;2.00;;;;;;;;;;5058318;27;88978;-59
2023/10/12 05:20:54;;;;;;;3.13;2.47;;;;;;;;;;5056128;27;87454;-60
2023/10/12 05:23:23;;;;;;;5.07;2.90;;;;;;;;;;5058610;27;88064;-60
2023/10/12 05:26:07;;;;;;;5.37;2.73;;;;;;;;;;5055135;27;89626;-63
2023/10/12 05:28:38;;;;;;;4.17;2.07;;;;;;;;;;5059707;27;88935;-57
2023/10/12 05:31:13;;;;;;;4.67;3.20;;;;;;;;;;5057215;27;88846;-63
2023/10/12 05:36:31;;;;;;;3.63;2.80;;;;;;;;;;5058902;27;89761;-65
2023/10/12 05:39:16;;;;;;;8.67;3.17;;;;;;;;;;5053798;27;89246;-63
2023/10/12 05:41:46;;;;;;;7.57;3.03;;;;;;;;;;5054089;27;88907;-63
2023/10/12 05:44:15;;;;;;;6.87;2.93;;;;;;;;;;5059037;27;87533;-62
2023/10/12 05:46:58;;;;;;;6.10;3.17;;;;;;;;;;5055606;27;89761;-62
2023/10/12 05:49:33;;;;;;;5.80;3.73;;;;;;;;;;5058789;27;90583;-62
2023/10/12 05:52:05;;;;;;;5.00;3.60;;;;;;;;;;5058232;27;89905;-62
2023/10/12 05:54:34;;;;;;;5.40;3.60;;;;;;;;;;5059159;27;87402;-62
2023/10/12 05:57:07;;;;;;;6.00;3.47;;;;;;;;;;5056912;27;89499;-63
2023/10/12 05:59:38;;;;;;;8.30;4.80;;;;;;;;;;5058861;27;88799;-62
2023/10/12 06:02:08;;;;;;;5.73;3.50;;;;;;;;;;5056420;27;87680;-62
2023/10/12 06:04:38;;;;;;;6.90;4.10;;;;;;;;;;5060315;27;87662;-62
2023/10/12 06:07:07;;;;;;;8.13;4.23;;;;;;;;;;5056452;27;89848;-61
2023/10/12 06:09:37;;;;;;;8.93;4.47;;;;;;;;;;5058714;27;89286;-62
2023/10/12 06:12:07;;;;;;;5.03;3.40;;;;;;;;;;5056267;27;88835;-63
2023/10/12 06:14:35;;;;;;;8.60;4.67;;;;;;;;;;5049916;27;88977;-61
2023/10/12 06:17:05;;;;;;;8.73;3.57;;;;;;;;;;5059239;27;89633;-62
2023/10/12 06:19:35;;;;;;;4.63;3.53;;;;;;;;;;5055374;27;88111;-62
2023/10/12 06:22:19;;;;;;;10.03;4.17;;;;;;;;;;5054725;27;88778;-58
2023/10/12 06:24:52;;;;;;;8.83;3.67;;;;;;;;;;5053911;27;87557;-58
2023/10/12 06:27:24;;;;;;;6.10;3.90;;;;;;;;;;5057237;27;89605;-59
2023/10/12 06:29:53;;;;;;;4.00;3.03;;;;;;;;;;5054734;27;89270;-59
2023/10/12 06:32:31;;;;;;;5.17;3.37;;;;;;;;;;5055567;27;88951;-59
2023/10/12 06:35:13;;;;;;;6.43;3.40;;;;;;;;;;5056815;27;87667;-59
2023/10/12 06:40:47;;;;;;;5.33;3.73;;;;;;;;;;5056308;27;88896;-59
2023/10/12 06:46:04;;;;;;;4.47;2.90;;;;;;;;;;5053772;27;87989;-59
2023/10/12 06:48:44;;;;;;;5.20;2.93;;;;;;;;;;5056124;27;88398;-59
2023/10/12 06:51:13;;;;;;;5.70;2.87;;;;;;;;;;5060494;27;89122;-58
2023/10/12 06:53:45;;;;;;;6.47;3.03;;;;;;;;;;5062291;27;87770;-62
2023/10/12 06:56:25;;;;;;;6.73;2.80;;;;;;;;;;5062237;27;87621;-62
2023/10/12 06:59:12;;;;;;;3.83;3.00;;;;;;;;;;5061379;27;89745;-61
2023/10/12 07:01:51;;;;;;;6.67;3.10;;;;;;;;;;5062434;27;89075;-62
2023/10/12 07:04:20;;;;;;;8.67;3.60;;;;;;;;;;5061932;27;88858;-62
2023/10/12 07:06:57;;;;;;;4.27;3.00;;;;;;;;;;5062379;27;87855;-62
2023/10/12 07:09:37;;;;;;;5.80;2.97;;;;;;;;;;5061559;27;89236;-62
2023/10/12 07:12:05;;;;;;;4.40;2.80;;;;;;;;;;5061022;27;90200;-62
2023/10/12 07:14:37;;;;;;;5.23;2.87;;;;;;;;;;5061834;27;90026;-62
2023/10/12 07:17:07;;;;;;;3.30;3.00;;;;;;;;;;5060149;27;87534;-62
2023/10/12 07:19:36;;;;;;;5.03;3.23;;;;;;;;;;5061087;27;88457;-62
2023/10/12 07:22:08;;;;;;;3.70;2.87;;;;;;;;;;5058988;27;89158;-62
2023/10/12 07:24:39;;;;;;;4.73;3.27;;;;;;;;;;5059926;27;88804;-62
2023/10/12 07:27:11;;;;;;;4.13;2.80;;;;;;;;;;5058277;27;88081;-63
2023/10/12 07:29:44;;;;;;;5.50;3.30;;;;;;;;;;5056034;27;89731;-61
2023/10/12 07:32:26;;;;;;;4.70;2.73;;;;;;;;;;5055834;27;90038;-66
2023/10/12 07:34:57;;;;;;;5.60;3.23;;;;;;;;;;5059465;27;89758;-64
2023/10/12 07:37:27;;;;;;;3.93;2.13;;;;;;;;;;5054485;27;87553;-66
2023/10/12 07:40:13;;;;;;;5.57;2.60;;;;;;;;;;5059673;27;89642;-65
2023/10/12 07:42:42;;;;;;;3.23;2.30;;;;;;;;;;5060837;27;92064;-65
2023/10/12 07:45:14;;;;;;;3.77;2.50;;;;;;;;;;5057703;27;89062;-65
2023/10/12 07:47:46;;;;;;;4.50;2.87;;;;;;;;;;5055401;27;87526;-65
2023/10/12 07:50:23;;;;;;;6.47;2.73;;;;;;;;;;5059879;27;90577;-65
2023/10/12 07:53:04;;;;;;;3.30;2.37;;;;;;;;;;5058956;27;89033;-65
2023/10/12 07:55:41;;;;;;;3.57;2.70;;;;;;;;;;5059299;27;87740;-65
2023/10/12 07:58:12;;;;;;;3.77;2.40;;;;;;;;;;5058802;27;88092;-64
2023/10/12 08:00:51;;;;;;;3.47;2.23;;;;;;;;;;5054955;27;89733;-72
2023/10/12 08:03:19;;;;;;;2.73;2.07;;;;;;;;;;5061755;27;87936;-57
2023/10/12 08:08:40;;;;;;;1.67;1.30;;;;;;;;;;5056165;27;87648;-58
2023/10/12 08:11:10;;;;;;;2.17;1.60;;;;;;;;;;5058281;27;89689;-57
2023/10/12 08:13:48;;;;;;;6.23;1.80;;;;;;;;;;5060208;27;88057;-56
2023/10/12 08:16:25;;;;;;;1.37;0.87;;;;;;;;;;5061469;27;88756;-57
2023/10/12 08:19:23;;;;;;;1.57;1.03;;;;;;;;;;5056578;27;87504;-57
2023/10/12 08:21:58;;;;;;;1.53;1.23;;;;;;;;;;5056269;27;88593;-57
2023/10/12 08:24:29;;;;;;;1.40;1.20;;;;;;;;;;5054567;27;90243;-57
2023/10/12 08:27:00;;;;;;;1.03;0.80;;;;;;;;;;5060029;27;88843;-60
2023/10/12 08:32:27;;;;;;;1.13;1.03;;;;;;;;;;5056121;27;89739;-57
2023/10/12 08:35:10;;;;;;;0.90;0.90;;;;;;;;;;5061712;27;89063;-58
2023/10/12 08:38:09;;;;;;;0.93;0.80;;;;;;;;;;5055876;27;88776;-57
2023/10/12 08:40:30;;;;;;;0.80;0.67;;;;;;;;;;5058824;27;87627;-57
2023/10/12 08:43:06;;;;;;;0.70;0.70;;;;;;;;;;5058191;27;88752;-57
2023/10/12 08:45:35;;;;;;;0.73;0.70;;;;;;;;;;5057536;27;89086;-56
2023/10/12 08:48:08;;;;;;;1.17;0.50;;;;;;;;;;5059361;27;87602;-58
2023/10/12 08:50:49;;;;;;;2.00;0.93;;;;;;;;;;5058924;27;87889;-56
2023/10/12 08:53:20;;;;;;;1.27;0.80;;;;;;;;;;5058575;27;88708;-56
2023/10/12 08:55:49;;;;;;;0.43;0.43;;;;;;;;;;5061358;27;88992;-56
2023/10/12 08:58:24;;;;;;;1.83;1.07;;;;;;;;;;5060815;27;88745;-56
2023/10/12 09:03:39;;;;;;;1.03;0.90;;;;;;;;;;5059372;27;89718;-56
2023/10/12 09:06:29;;;;;;;1.03;0.90;;;;;;;;;;5058063;27;89144;-56
2023/10/12 09:08:57;;;;;;;1.20;1.10;;;;;;;;;;5059499;27;87801;-57
2023/10/12 09:11:29;;;;;;;1.63;0.80;;;;;;;;;;5057362;27;87704;-58
2023/10/12 09:14:00;;;;;;;1.40;0.80;;;;;;;;;;5060286;27;88523;-56
2023/10/12 09:16:29;;;;;;;2.20;1.10;;;;;;;;;;5057730;27;88493;-55
2023/10/12 09:18:59;;;;;;;2.67;1.10;;;;;;;;;;5055864;27;89713;-56
2023/10/12 09:21:39;;;;;;;1.53;1.30;;;;;;;;;;5055465;27;88255;-57
2023/10/12 09:24:15;;;;;;;0.83;0.83;;;;;;;;;;5054440;27;89704;-57
2023/10/12 09:26:50;;;;;;;1.47;1.10;;;;;;;;;;5059714;27;89042;-56
2023/10/12 09:29:23;;;;;;;1.33;1.00;;;;;;;;;;5058599;27;87737;-56
2023/10/12 09:35:11;;;;;;;2.17;1.30;;;;;;;;;;5052907;27;89475;-59
2023/10/12 09:37:44;;;;;;;1.73;1.47;;;;;;;;;;5059216;27;88968;-57
2023/10/12 09:40:29;;;;;;;1.87;1.40;;;;;;;;;;5055693;27;89582;-57
2023/10/12 09:43:01;;;;;;;1.60;1.23;;;;;;;;;;5056750;27;88014;-58
2023/10/12 09:45:35;;;;;;;2.13;1.47;;;;;;;;;;5057087;27;88312;-59
2023/10/12 09:48:06;;;;;;;16.57;8.57;;;;;;;;;;5059970;27;89140;-58
2023/10/12 09:50:35;;;;;;;27.03;11.83;;;;;;;;;;5056647;27;87539;-57
2023/10/12 09:53:13;;;;;;;24.90;9.97;;;;;;;;;;5058337;27;87806;-57
2023/10/12 09:56:02;;;;;;;19.13;6.57;;;;;;;;;;5058684;27;89792;-56
2023/10/12 09:58:33;;;;;;;15.67;8.27;;;;;;;;;;5057367;27;88132;-57
2023/10/12 10:01:07;;;;;;;15.20;7.20;;;;;;;;;;5054433;27;88706;-55
2023/10/12 10:03:42;;;;;;;12.53;5.20;;;;;;;;;;5059345;27;87654;-56
2023/10/12 10:06:19;;;;;;;8.80;5.23;;;;;;;;;;5056835;27;89462;-57
2023/10/12 10:09:03;;;;;;;11.80;5.23;;;;;;;;;;5056042;27;89010;-57
2023/10/12 10:11:32;;;;;;;6.83;4.27;;;;;;;;;;5057830;27;89812;-58
2023/10/12 10:14:00;;;;;;;9.10;4.90;;;;;;;;;;5058369;27;87716;-59
2023/10/12 10:16:45;;;;;;;10.83;4.63;;;;;;;;;;5058726;27;88479;-58
2023/10/12 10:19:16;;;;;;;8.20;4.43;;;;;;;;;;5056215;27;89147;-58
2023/10/12 10:21:50;;;;;;;11.07;4.03;;;;;;;;;;5058780;27;87714;-57
2023/10/12 10:24:24;;;;;;;7.37;3.57;;;;;;;;;;5061245;27;87569;-58
2023/10/12 10:26:59;;;;;;;5.60;3.53;;;;;;;;;;5059876;27;88563;-57
2023/10/12 10:29:52;;;;;;;7.87;3.87;;;;;;;;;;5059378;27;89232;-57
2023/10/12 10:32:31;;;;;;;8.80;3.57;;;;;;;;;;5061873;27;88771;-57
2023/10/12 10:35:04;;;;;;;4.37;2.90;;;;;;;;;;5055962;27;88526;-57
2023/10/12 10:37:47;;;;;;;8.27;3.67;;;;;;;;;;5062180;27;87538;-58
2023/10/12 10:40:19;;;;;;;4.73;3.47;;;;;;;;;;5060836;27;89065;-57
2023/10/12 10:42:59;;;;;;;11.80;3.80;;;;;;;;;;5063032;27;87810;-57
2023/10/12 10:45:28;;;;;;;10.53;4.47;;;;;;;;;;5062463;27;87534;-58
2023/10/12 10:47:57;;;;;;;8.43;3.67;;;;;;;;;;5062959;27;89803;-58
2023/10/12 10:50:49;;;;;;;8.90;4.30;;;;;;;;;;5062073;27;90292;-58
2023/10/12 10:53:19;;;;;;;8.83;4.17;;;;;;;;;;5062432;27;87874;-58
2023/10/12 10:55:50;;;;;;;7.80;3.83;;;;;;;;;;5062917;27;87735;-57
2023/10/12 10:58:19;;;;;;;8.13;4.57;;;;;;;;;;5062649;27;89743;-57
2023/10/12 11:00:56;;;;;;;7.80;4.63;;;;;;;;;;5060455;27;88933;-57
2023/10/12 11:03:32;;;;;;;9.93;5.47;;;;;;;;;;5062618;27;88697;-58
2023/10/12 11:06:01;;;;;;;8.03;5.00;;;;;;;;;;5062830;27;87895;-58
2023/10/12 11:08:32;;;;;;;10.30;5.10;;;;;;;;;;5062378;27;89752;-58
2023/10/12 11:13:50;;;;;;;10.50;5.20;;;;;;;;;;5040471;27;88827;-57
2023/10/12 11:16:28;;;;;;;10.93;5.87;;;;;;;;;;5062696;27;88262;-58
2023/10/12 11:18:59;;;;;;;7.67;5.63;;;;;;;;;;5058715;27;89685;-58
2023/10/12 11:21:27;;;;;;;9.30;5.40;;;;;;;;;;5062231;27;88203;-57
2023/10/12 11:24:01;;;;;;;8.50;5.63;;;;;;;;;;5062289;27;88802;-57
2023/10/12 11:26:29;;;;;;;8.80;6.57;;;;;;;;;;5060154;27;87930;-58
2023/10/12 11:29:04;;;;;;;13.60;7.30;;;;;;;;;;5055181;27;89632;-58
2023/10/12 11:31:32;;;;;;;12.73;5.77;;;;;;;;;;5058151;27;88071;-57
2023/10/12 11:34:07;;;;;;;11.23;6.67;;;;;;;;;;5060075;27;87989;-57
2023/10/12 11:36:36;;;;;;;12.83;6.07;;;;;;;;;;5059564;27;87540;-58
2023/10/12 11:39:13;;;;;;;9.10;5.93;;;;;;;;;;5062096;27;89661;-58
2023/10/12 11:41:41;;;;;;;9.77;6.33;;;;;;;;;;5062761;27;88197;-57
2023/10/12 11:44:12;;;;;;;12.73;6.30;;;;;;;;;;5062933;27;87421;-58
2023/10/12 11:46:44;;;;;;;11.07;6.67;;;;;;;;;;5062542;27;87682;-57
2023/10/12 11:49:14;;;;;;;12.70;7.63;;;;;;;;;;5062410;27;88680;-57
2023/10/12 11:51:50;;;;;;;10.13;6.90;;;;;;;;;;5060713;27;90617;-58
2023/10/12 11:54:32;;;;;;;11.70;7.30;;;;;;;;;;5061820;27;88752;-58
2023/10/12 11:57:03;;;;;;;9.60;7.07;;;;;;;;;;5051405;27;88609;-57
2023/10/12 11:59:35;;;;;;;13.47;7.97;;;;;;;;;;5042247;27;88184;-58
2023/10/12 12:02:08;;;;;;;10.87;6.30;;;;;;;;;;5062202;27;89106;-58
2023/10/12 12:04:40;;;;;;;14.67;6.67;;;;;;;;;;5060709;27;87658;-58
2023/10/12 12:07:17;;;;;;;9.93;6.33;;;;;;;;;;5058748;27;88828;-58
2023/10/12 12:09:48;;;;;;;11.90;7.57;;;;;;;;;;5052717;27;89364;-57
2023/10/12 12:12:17;;;;;;;10.03;6.07;;;;;;;;;;5044716;27;88024;-57
2023/10/12 12:14:49;;;;;;;13.70;6.97;;;;;;;;;;5045955;27;88897;-57
2023/10/12 12:17:17;;;;;;;9.83;6.17;;;;;;;;;;5059796;27;87888;-58
2023/10/12 12:19:47;;;;;;;12.33;7.47;;;;;;;;;;5058664;27;89729;-57
2023/10/12 12:22:15;;;;;;;12.13;7.27;;;;;;;;;;5057390;27;87868;-57
2023/10/12 12:24:45;;;;;;;9.20;6.30;;;;;;;;;;5056067;27;88921;-57
2023/10/12 12:27:37;;;;;;;12.53;6.40;;;;;;;;;;5041460;27;87640;-58
2023/10/12 12:30:24;;;;;;;12.10;6.80;;;;;;;;;;5061354;27;88547;-57
2023/10/12 12:33:15;;;;;;;10.53;6.17;;;;;;;;;;5042065;27;87746;-57
2023/10/12 12:35:46;;;;;;;11.17;6.20;;;;;;;;;;5062141;27;88357;-57
2023/10/12 12:38:28;;;;;;;12.60;5.90;;;;;;;;;;5062096;27;87823;-56
2023/10/12 12:40:57;;;;;;;9.23;5.60;;;;;;;;;;5061354;27;89809;-56
2023/10/12 12:43:25;;;;;;;10.83;6.90;;;;;;;;;;5048759;27;89105;-56
2023/10/12 12:45:54;;;;;;;8.67;5.57;;;;;;;;;;5046117;27;89754;-57
2023/10/12 12:48:22;;;;;;;7.57;5.00;;;;;;;;;;5061987;27;87413;-57
2023/10/12 12:50:52;;;;;;;6.53;5.10;;;;;;;;;;5061931;27;89304;-56
2023/10/12 12:53:20;;;;;;;9.03;5.97;;;;;;;;;;5061703;27;87695;-56
2023/10/12 12:55:49;;;;;;;11.67;6.27;;;;;;;;;;5061703;27;87236;-57
2023/10/12 12:58:18;;;;;;;13.13;6.13;;;;;;;;;;5061571;27;87618;-56
2023/10/12 13:00:47;;;;;;;11.93;5.70;;;;;;;;;;5046273;27;88744;-57
2023/10/12 13:03:16;;;;;;;7.37;4.63;;;;;;;;;;5041273;27;87447;-56
2023/10/12 13:05:46;;;;;;;8.07;5.53;;;;;;;;;;5040904;28;88943;-57
2023/10/12 13:08:16;;;;;;;7.63;4.43;;;;;;;;;;5040915;27;87845;-57
2023/10/12 13:10:45;;;;;;;8.27;4.73;;;;;;;;;;5048176;27;89639;-57
2023/10/12 13:13:14;;;;;;;6.30;4.27;;;;;;;;;;5053459;27;88020;-58
2023/10/12 13:15:47;;;;;;;8.73;5.07;;;;;;;;;;5058882;27;89198;-57
2023/10/12 13:18:16;;;;;;;13.33;5.03;;;;;;;;;;5055089;27;88051;-57
2023/10/12 13:20:46;;;;;;;9.00;5.30;;;;;;;;;;5048820;27;89663;-56
2023/10/12 13:23:17;;;;;;;6.60;4.90;;;;;;;;;;5058772;27;87718;-56
2023/10/12 13:25:45;;;;;;;11.27;5.50;;;;;;;;;;5059332;27;87834;-58
2023/10/12 13:28:13;;;;;;;12.17;5.97;;;;;;;;;;5047530;27;87655;-58
2023/10/12 13:30:42;;;;;;;15.10;6.60;;;;;;;;;;5059103;27;87592;-57
2023/10/12 13:33:11;;;;;;;8.73;5.17;;;;;;;;;;5052998;27;89065;-56
2023/10/12 13:35:44;;;;;;;10.50;5.33;;;;;;;;;;5059461;27;88637;-55
2023/10/12 13:38:15;;;;;;;10.40;5.60;;;;;;;;;;5062946;27;87538;-56
2023/10/12 13:40:46;;;;;;;9.50;5.43;;;;;;;;;;5054557;27;89717;-57
2023/10/12 13:43:21;;;;;;;7.17;4.97;;;;;;;;;;5052744;27;89004;-63
2023/10/12 13:45:51;;;;;;;8.13;5.23;;;;;;;;;;5053595;27;89168;-68
2023/10/12 13:48:21;;;;;;;7.53;4.70;;;;;;;;;;5060915;27;87383;-61
2023/10/12 13:50:53;;;;;;;7.63;5.30;;;;;;;;;;5052761;27;88726;-58
2023/10/12 13:53:23;;;;;;;8.93;5.13;;;;;;;;;;5051292;27;88037;-58
2023/10/12 13:55:53;;;;;;;8.33;4.87;;;;;;;;;;5059633;27;87777;-58
2023/10/12 13:58:24;;;;;;;12.63;4.80;;;;;;;;;;5059087;27;88283;-58
2023/10/12 14:00:54;;;;;;;9.50;5.40;;;;;;;;;;5060738;27;90681;-61
2023/10/12 14:03:28;;;;;;;7.27;5.20;;;;;;;;;;5055169;27;89148;-57
2023/10/12 14:05:57;;;;;;;15.03;6.10;;;;;;;;;;5054431;27;88918;-58
2023/10/12 14:08:25;;;;;;;10.60;5.70;;;;;;;;;;5048227;27;87821;-57
2023/10/12 14:11:02;;;;;;;7.17;5.07;;;;;;;;;;5060269;27;88564;-56
2023/10/12 14:13:31;;;;;;;7.23;4.77;;;;;;;;;;5061646;27;89018;-57
2023/10/12 14:15:59;;;;;;;7.20;4.33;;;;;;;;;;5063273;27;87740;-57
2023/10/12 14:18:28;;;;;;;7.47;4.43;;;;;;;;;;5054676;27;87618;-55
2023/10/12 14:20:57;;;;;;;9.30;4.30;;;;;;;;;;5056239;27;88516;-57
2023/10/12 14:23:26;;;;;;;8.53;4.57;;;;;;;;;;5056496;27;89278;-58
2023/10/12 14:25:57;;;;;;;5.90;4.03;;;;;;;;;;5046795;27;89278;-57
2023/10/12 14:28:31;;;;;;;7.70;4.57;;;;;;;;;;5045446;27;87909;-56
2023/10/12 14:31:00;;;;;;;6.07;4.27;;;;;;;;;;5065234;27;89843;-59
2023/10/12 14:33:30;;;;;;;9.70;3.17;;;;;;;;;;5048691;27;89154;-55
2023/10/12 14:35:58;;;;;;;6.17;3.87;;;;;;;;;;5042912;27;89102;-55
2023/10/12 14:38:30;;;;;;;5.53;3.87;;;;;;;;;;5043355;27;87655;-57
2023/10/12 14:41:05;;;;;;;9.20;3.70;;;;;;;;;;5056597;27;88309;-57
2023/10/12 14:43:36;;;;;;;8.53;4.10;;;;;;;;;;5059093;27;87981;-54
2023/10/12 14:46:04;;;;;;;3.77;3.00;;;;;;;;;;5060740;27;88234;-53
2023/10/12 14:48:33;;;;;;;6.70;2.83;;;;;;;;;;5057719;27;88314;-56
2023/10/12 14:51:07;;;;;;;5.20;3.17;;;;;;;;;;5055216;27;89699;-55
2023/10/12 14:53:36;;;;;;;5.13;3.40;;;;;;;;;;5046582;27;87718;-54
2023/10/12 14:56:06;;;;;;;7.13;4.50;;;;;;;;;;5059066;27;88089;-54
2023/10/12 14:58:34;;;;;;;5.07;3.30;;;;;;;;;;5059259;27;88272;-55
2023/10/12 15:01:09;;;;;;;6.60;3.00;;;;;;;;;;5041541;27;89605;-54
2023/10/12 15:03:38;;;;;;;5.63;2.83;;;;;;;;;;5049428;27;88190;-54
2023/10/12 15:06:08;;;;;;;4.03;3.10;;;;;;;;;;5059004;27;87949;-55
2023/10/12 15:08:36;;;;;;;3.37;2.80;;;;;;;;;;5048953;27;88147;-55
2023/10/12 15:11:06;;;;;;;3.97;2.73;;;;;;;;;;5048596;27;88511;-55
2023/10/12 15:13:37;;;;;;;3.70;2.63;;;;;;;;;;5059109;27;89583;-54
2023/10/12 15:16:09;;;;;;;4.23;2.87;;;;;;;;;;5050625;27;88477;-54
2023/10/12 15:18:41;;;;;;;3.93;2.53;;;;;;;;;;5059774;27;87491;-54
2023/10/12 15:21:11;;;;;;;3.20;2.60;;;;;;;;;;5050979;27;90618;-55
2023/10/12 15:23:57;;;;;;;5.03;2.73;;;;;;;;;;5054381;27;88467;-54
2023/10/12 15:26:28;;;;;;;5.10;2.97;;;;;;;;;;5055983;27;87610;-55
2023/10/12 15:28:56;;;;;;;3.87;3.10;;;;;;;;;;5043279;27;88024;-55
2023/10/12 15:31:26;;;;;;;6.27;3.57;;;;;;;;;;5074392;27;88812;-54
2023/10/12 15:33:56;;;;;;;5.97;3.77;;;;;;;;;;5058683;27;88204;-55
2023/10/12 15:36:25;;;;;;;5.27;2.87;;;;;;;;;;5058055;27;87928;-55
2023/10/12 15:38:54;;;;;;;7.03;3.37;;;;;;;;;;5040268;27;88024;-55
2023/10/12 15:41:22;;;;;;;5.57;2.70;;;;;;;;;;5046598;27;88536;-54
2023/10/12 15:43:52;;;;;;;3.53;2.73;;;;;;;;;;5057948;27;88054;-54
2023/10/12 15:46:21;;;;;;;3.93;2.63;;;;;;;;;;5042287;27;87625;-54
2023/10/12 15:48:50;;;;;;;5.03;2.77;;;;;;;;;;5057329;27;87644;-53
2023/10/12 15:51:19;;;;;;;4.43;2.33;;;;;;;;;;5054413;27;89934;-54
2023/10/12 15:53:50;;;;;;;4.07;2.23;;;;;;;;;;5058614;27;89033;-54
2023/10/12 15:56:18;;;;;;;3.03;2.43;;;;;;;;;;5059363;27;89090;-54
2023/10/12 15:58:49;;;;;;;4.17;1.93;;;;;;;;;;5052869;27;87910;-54
2023/10/12 16:01:20;;;;;;;3.43;2.40;;;;;;;;;;5058022;27;88779;-54
2023/10/12 16:03:49;;;;;;;3.57;2.67;;;;;;;;;;5050967;27;89124;-54
2023/10/12 16:06:17;;;;;;;2.93;2.40;;;;;;;;;;5058775;27;88354;-55
2023/10/12 16:08:46;;;;;;;3.27;2.10;;;;;;;;;;5055260;27;87362;-53
2023/10/12 16:11:17;;;;;;;5.20;2.30;;;;;;;;;;5049090;27;88557;-54